createdAt,value
2018-12-29T00:00:54.825Z,23.97
2018-12-29T00:03:23.413Z,22.43
2018-12-29T00:05:51.945Z,22.67
2018-12-29T00:08:20.603Z,24.17
2018-12-29T00:10:49.100Z,22.27
2018-12-29T00:13:17.940Z,22.93
2018-12-29T00:21:10.354Z,22.87
2018-12-29T00:23:58.665Z,22.43
2018-12-29T00:26:27.445Z,21.93
2018-12-29T00:28:56.022Z,22.13
2018-12-29T00:31:24.527Z,22.60
2018-12-29T00:33:53.099Z,21.77
2018-12-29T00:36:21.558Z,22.20
2018-12-29T00:38:50.096Z,23.17
2018-12-29T00:41:18.649Z,23.00
2018-12-29T00:43:47.252Z,22.93
2018-12-29T00:46:15.901Z,22.30
2018-12-29T00:48:44.429Z,23.37
2018-12-29T00:51:12.924Z,23.57
2018-12-29T00:53:41.594Z,22.73
2018-12-29T00:56:10.452Z,22.43
2018-12-29T00:58:39.205Z,22.53
2018-12-29T01:01:07.961Z,21.73
2018-12-29T01:03:36.645Z,21.60
2018-12-29T01:06:05.115Z,21.60
2018-12-29T01:08:34.071Z,21.20
2018-12-29T01:11:03.041Z,21.10
2018-12-29T01:13:35.749Z,21.00
2018-12-29T01:16:04.342Z,20.90
2018-12-29T01:18:32.996Z,20.80
2018-12-29T01:21:24.370Z,20.23
2018-12-29T01:23:52.294Z,19.53
2018-12-29T01:26:20.796Z,20.67
2018-12-29T01:28:49.452Z,19.37
2018-12-29T01:31:18.127Z,18.90
2018-12-29T01:33:46.737Z,19.20
2018-12-29T01:36:15.247Z,18.37
2018-12-29T01:38:43.861Z,19.17
2018-12-29T01:41:12.730Z,18.23
2018-12-29T01:43:41.388Z,19.67
2018-12-29T01:46:09.991Z,18.57
2018-12-29T01:48:38.582Z,17.97
2018-12-29T01:51:07.214Z,18.57
2018-12-29T01:53:36.057Z,16.33
2018-12-29T01:56:04.928Z,18.13
2018-12-29T01:58:34.068Z,17.90
2018-12-29T02:01:02.700Z,17.90
2018-12-29T02:03:31.501Z,18.70
2018-12-29T02:06:00.052Z,18.03
2018-12-29T02:08:28.753Z,18.83
2018-12-29T02:10:57.354Z,18.53
2018-12-29T02:13:26.078Z,17.37
2018-12-29T02:15:54.759Z,18.43
2018-12-29T02:18:23.473Z,18.80
2018-12-29T02:20:52.023Z,17.57
2018-12-29T02:23:20.670Z,19.33
2018-12-29T02:25:49.461Z,18.90
2018-12-29T02:28:17.995Z,19.60
2018-12-29T02:30:46.695Z,19.03
2018-12-29T02:33:15.256Z,19.27
2018-12-29T02:35:44.071Z,19.13
2018-12-29T02:38:12.690Z,20.23
2018-12-29T02:40:41.299Z,19.10
2018-12-29T02:43:10.283Z,20.50
2018-12-29T02:45:38.941Z,18.67
2018-12-29T02:48:07.807Z,20.33
2018-12-29T02:50:36.400Z,19.70
2018-12-29T02:53:04.944Z,20.70
2018-12-29T02:55:33.616Z,18.60
2018-12-29T02:58:02.244Z,20.40
2018-12-29T03:00:31.046Z,19.27
2018-12-29T03:02:59.641Z,20.10
2018-12-29T03:05:28.701Z,19.77
2018-12-29T03:07:57.717Z,19.73
2018-12-29T03:10:26.309Z,19.67
2018-12-29T03:12:55.087Z,19.10
2018-12-29T03:15:23.905Z,18.60
2018-12-29T03:17:52.488Z,18.20
2018-12-29T03:20:21.164Z,18.67
2018-12-29T03:22:49.985Z,19.57
2018-12-29T03:25:18.670Z,18.67
2018-12-29T03:27:47.283Z,18.93
2018-12-29T03:30:15.902Z,19.23
2018-12-29T03:32:44.553Z,18.23
2018-12-29T03:35:13.268Z,19.73
2018-12-29T03:37:41.921Z,17.27
2018-12-29T03:40:10.530Z,18.30
2018-12-29T03:42:39.126Z,18.37
2018-12-29T03:45:07.740Z,18.13
2018-12-29T03:47:36.355Z,18.67
2018-12-29T03:50:05.261Z,18.77
2018-12-29T03:52:34.010Z,18.73
2018-12-29T03:55:02.630Z,17.60
2018-12-29T03:57:31.231Z,18.20
2018-12-29T03:59:59.877Z,19.17
2018-12-29T04:02:28.570Z,19.93
2018-12-29T04:04:57.386Z,20.30
2018-12-29T04:07:26.334Z,19.47
2018-12-29T04:09:55.748Z,18.63
2018-12-29T04:12:25.246Z,18.50
2018-12-29T04:14:53.862Z,20.00
2018-12-29T04:17:22.503Z,19.80
2018-12-29T04:19:51.241Z,18.43
2018-12-29T04:22:19.913Z,20.67
2018-12-29T04:24:48.628Z,20.83
2018-12-29T04:27:17.442Z,19.73
2018-12-29T04:29:46.034Z,19.73
2018-12-29T04:32:14.654Z,21.03
2018-12-29T04:34:43.262Z,20.03
2018-12-29T04:37:11.975Z,19.40
2018-12-29T04:39:56.066Z,20.70
2018-12-29T04:42:25.043Z,19.27
2018-12-29T04:44:53.835Z,19.73
2018-12-29T04:47:22.599Z,20.10
2018-12-29T04:49:51.434Z,20.47
2018-12-29T04:52:20.230Z,19.23
2018-12-29T04:54:48.874Z,19.37
2018-12-29T04:57:17.549Z,19.77
2018-12-29T04:59:46.282Z,19.10
2018-12-29T05:02:15.025Z,19.23
2018-12-29T05:04:43.687Z,19.70
2018-12-29T05:07:12.316Z,18.40
2018-12-29T05:09:41.070Z,19.17
2018-12-29T05:12:09.752Z,18.37
2018-12-29T05:14:38.651Z,18.93
2018-12-29T05:17:13.928Z,18.80
2018-12-29T05:19:42.949Z,18.93
2018-12-29T05:22:12.902Z,17.23
2018-12-29T05:24:41.725Z,19.00
2018-12-29T05:27:10.440Z,17.87
2018-12-29T05:29:39.016Z,17.23
2018-12-29T05:32:07.766Z,17.70
2018-12-29T05:34:36.519Z,17.23
2018-12-29T05:37:05.077Z,17.03
2018-12-29T05:39:33.699Z,17.63
2018-12-29T05:42:02.571Z,16.67
2018-12-29T05:44:31.581Z,16.70
2018-12-29T05:47:00.531Z,16.97
2018-12-29T05:49:29.407Z,16.30
2018-12-29T05:51:58.202Z,16.57
2018-12-29T05:54:27.406Z,16.43
2018-12-29T05:56:56.190Z,16.97
2018-12-29T05:59:25.071Z,16.00
2018-12-29T06:01:54.746Z,15.07
2018-12-29T06:04:24.704Z,15.80
2018-12-29T06:06:53.996Z,15.33
2018-12-29T06:09:22.758Z,16.37
2018-12-29T06:11:57.324Z,14.83
2018-12-29T06:14:26.208Z,15.17
2018-12-29T06:16:55.000Z,14.97
2018-12-29T06:19:24.077Z,14.73
2018-12-29T06:21:52.804Z,15.07
2018-12-29T06:24:21.464Z,14.53
2018-12-29T06:26:50.290Z,13.23
2018-12-29T06:29:18.998Z,15.10
2018-12-29T06:31:47.689Z,15.27
2018-12-29T06:34:21.573Z,15.23
2018-12-29T06:36:50.385Z,16.20
2018-12-29T06:39:19.214Z,15.53
2018-12-29T06:41:48.254Z,14.87
2018-12-29T06:44:16.936Z,14.10
2018-12-29T06:46:45.656Z,14.10
2018-12-29T06:49:14.538Z,14.83
2018-12-29T07:01:28.032Z,14.60
2018-12-29T07:04:01.924Z,14.53
2018-12-29T07:06:50.609Z,13.60
2018-12-29T07:09:18.029Z,14.23
2018-12-29T07:11:47.201Z,14.07
2018-12-29T07:14:16.438Z,14.30
2018-12-29T07:16:45.093Z,13.87
2018-12-29T07:19:13.729Z,13.23
2018-12-29T07:21:42.618Z,14.63
2018-12-29T07:24:11.349Z,13.43
2018-12-29T07:26:40.311Z,14.57
2018-12-29T07:29:09.083Z,13.87
2018-12-29T07:31:37.947Z,14.03
2018-12-29T07:34:07.033Z,13.93
2018-12-29T07:36:35.698Z,14.70
2018-12-29T07:39:10.352Z,14.50
2018-12-29T07:41:39.061Z,14.83
2018-12-29T07:44:07.949Z,13.97
2018-12-29T07:46:36.657Z,15.27
2018-12-29T07:49:05.684Z,14.33
2018-12-29T07:51:34.333Z,14.40
2018-12-29T07:54:03.046Z,13.90
2018-12-29T07:56:31.906Z,15.50
2018-12-29T07:59:03.574Z,15.10
2018-12-29T08:01:32.445Z,13.90
2018-12-29T08:04:05.147Z,15.00
2018-12-29T08:06:34.488Z,15.47
2018-12-29T08:09:15.841Z,14.60
2018-12-29T08:11:47.848Z,14.80
2018-12-29T08:14:16.391Z,16.23
2018-12-29T08:16:45.296Z,15.90
2018-12-29T08:19:13.979Z,15.17
2018-12-29T08:21:43.263Z,14.77
2018-12-29T08:24:11.912Z,15.87
2018-12-29T08:26:46.553Z,16.00
2018-12-29T08:29:15.633Z,17.10
2018-12-29T08:31:47.335Z,16.10
2018-12-29T08:34:16.127Z,17.23
2018-12-29T08:36:44.682Z,17.20
2018-12-29T08:39:19.158Z,16.23
2018-12-29T08:41:55.066Z,15.90
2018-12-29T08:44:28.477Z,15.60
2018-12-29T08:47:04.274Z,15.40
2018-12-29T08:49:28.259Z,14.53
2018-12-29T08:51:57.022Z,14.03
2018-12-29T08:54:26.003Z,14.70
2018-12-29T08:56:57.574Z,15.80
2018-12-29T08:59:26.719Z,14.87
2018-12-29T09:02:03.042Z,13.50
2018-12-29T09:04:32.820Z,14.00
2018-12-29T09:07:07.665Z,14.00
2018-12-29T09:09:45.785Z,14.57
2018-12-29T09:12:14.992Z,14.07
2018-12-29T09:14:49.748Z,13.23
2018-12-29T09:17:18.730Z,14.40
2018-12-29T09:19:47.540Z,13.67
2018-12-29T09:22:16.617Z,14.80
2018-12-29T09:24:45.998Z,14.47
2018-12-29T09:27:14.733Z,15.63
2018-12-29T09:29:43.738Z,15.00
2018-12-29T09:32:14.709Z,14.50
2018-12-29T09:34:43.395Z,14.83
2018-12-29T09:37:12.310Z,14.90
2018-12-29T09:39:40.814Z,16.37
2018-12-29T09:42:13.743Z,15.87
2018-12-29T09:44:46.311Z,16.20
2018-12-29T09:47:19.714Z,15.57
2018-12-29T09:49:47.611Z,16.60
2018-12-29T09:52:21.131Z,16.40
2018-12-29T09:54:49.780Z,17.23
2018-12-29T09:57:18.710Z,17.07
2018-12-29T09:59:47.460Z,17.27
2018-12-29T10:02:16.378Z,17.40
2018-12-29T10:04:45.453Z,17.17
2018-12-29T10:07:16.942Z,15.73
2018-12-29T10:09:46.220Z,16.23
2018-12-29T10:12:14.769Z,17.23
2018-12-29T10:14:43.686Z,17.80
2018-12-29T10:17:12.336Z,16.67
2018-12-29T10:19:41.105Z,17.33
2018-12-29T10:22:10.161Z,16.47
2018-12-29T10:24:39.089Z,15.83
2018-12-29T10:27:11.847Z,18.43
2018-12-29T10:29:40.839Z,17.07
2018-12-29T10:32:11.095Z,17.67
2018-12-29T10:34:41.343Z,16.47
2018-12-29T10:37:12.042Z,18.27
2018-12-29T10:39:41.701Z,17.57
2018-12-29T10:42:12.193Z,17.50
2018-12-29T10:44:41.057Z,18.43
2018-12-29T10:47:09.670Z,18.73
2018-12-29T10:49:41.762Z,18.13
2018-12-29T10:52:19.609Z,18.33
2018-12-29T10:54:48.274Z,18.13
2018-12-29T10:57:16.920Z,18.40
2018-12-29T10:59:45.923Z,18.83
2018-12-29T11:02:17.916Z,19.27
2018-12-29T11:04:46.832Z,18.73
2018-12-29T11:07:15.667Z,19.53
2018-12-29T11:09:44.331Z,19.63
2018-12-29T11:12:12.875Z,19.67
2018-12-29T11:14:43.240Z,19.63
2018-12-29T11:17:11.860Z,19.90
2018-12-29T11:19:40.739Z,19.83
2018-12-29T11:22:09.354Z,19.53
2018-12-29T11:24:38.159Z,19.43
2018-12-29T11:27:07.044Z,20.60
2018-12-29T11:29:35.779Z,20.43
2018-12-29T11:32:05.830Z,19.53
2018-12-29T11:34:34.527Z,20.40
2018-12-29T11:37:03.868Z,19.87
2018-12-29T11:39:32.629Z,20.17
2018-12-29T11:42:01.258Z,20.80
2018-12-29T11:44:30.040Z,19.33
2018-12-29T11:47:03.723Z,19.73
2018-12-29T11:49:35.256Z,20.57
2018-12-29T11:52:05.449Z,21.10
2018-12-29T11:54:33.994Z,21.30
2018-12-29T11:57:02.518Z,21.40
2018-12-29T11:59:31.241Z,22.43
2018-12-29T12:02:00.087Z,21.47
2018-12-29T12:04:29.085Z,22.17
2018-12-29T12:06:58.220Z,21.53
2018-12-29T12:09:30.475Z,21.37
2018-12-29T12:11:59.293Z,22.50
2018-12-29T12:14:33.607Z,20.93
2018-12-29T12:17:02.383Z,21.63
2018-12-29T12:19:31.274Z,20.67
2018-12-29T12:21:59.796Z,22.60
2018-12-29T12:24:28.750Z,23.00
2018-12-29T12:26:57.394Z,22.63
2018-12-29T12:29:26.113Z,23.10
2018-12-29T12:31:54.946Z,24.00
2018-12-29T12:34:23.797Z,22.87
2018-12-29T12:36:52.555Z,23.07
2018-12-29T12:39:21.122Z,21.00
2018-12-29T12:41:50.179Z,22.13
2018-12-29T12:44:18.988Z,22.67
2018-12-29T12:46:49.370Z,23.47
2018-12-29T12:49:18.304Z,23.83
2018-12-29T12:51:46.976Z,22.97
2018-12-29T12:54:20.334Z,23.00
2018-12-29T12:56:46.721Z,26.70
2018-12-29T12:59:16.524Z,23.40
2018-12-29T13:08:09.107Z,23.77
2018-12-29T13:10:37.933Z,24.60
2018-12-29T13:18:25.354Z,23.50
2018-12-29T13:20:54.121Z,25.47
2018-12-29T13:23:22.684Z,24.70
2018-12-29T13:25:51.340Z,24.47
2018-12-29T13:28:20.302Z,23.43
2018-12-29T13:30:48.971Z,23.50
2018-12-29T13:33:17.638Z,23.47
2018-12-29T13:35:46.206Z,23.63
2018-12-29T13:38:14.796Z,24.67
2018-12-29T13:40:44.654Z,25.53
2018-12-29T13:43:13.492Z,22.90
2018-12-29T13:45:42.248Z,23.43
2018-12-29T13:48:11.206Z,22.60
2018-12-29T13:50:39.906Z,21.73
2018-12-29T13:53:08.633Z,22.03
2018-12-29T13:55:49.142Z,21.53
2018-12-29T13:58:17.720Z,21.53
2018-12-29T14:00:46.422Z,19.40
2018-12-29T14:03:15.022Z,19.23
2018-12-29T14:05:43.762Z,18.13
2018-12-29T14:08:12.503Z,17.87
2018-12-29T14:10:41.250Z,17.00
2018-12-29T14:13:09.907Z,15.10
2018-12-29T14:15:38.551Z,15.43
2018-12-29T14:18:07.218Z,16.53
2018-12-29T14:20:35.835Z,16.47
2018-12-29T14:23:04.485Z,16.87
2018-12-29T14:25:33.033Z,17.10
2018-12-29T14:28:02.827Z,18.27
2018-12-29T14:30:31.480Z,18.13
2018-12-29T14:33:02.650Z,19.23
2018-12-29T14:35:31.370Z,19.37
2018-12-29T14:38:00.375Z,21.03
2018-12-29T14:40:29.049Z,22.27
2018-12-29T14:42:57.655Z,21.83
2018-12-29T14:45:26.677Z,22.93
2018-12-29T14:47:55.229Z,23.40
2018-12-29T14:50:24.282Z,23.57
2018-12-29T14:52:52.809Z,23.80
2018-12-29T14:55:21.374Z,24.57
2018-12-29T14:57:49.924Z,24.70
2018-12-29T15:00:19.610Z,25.97
2018-12-29T15:02:48.337Z,26.27
2018-12-29T15:05:17.013Z,26.20
2018-12-29T15:07:45.784Z,25.80
2018-12-29T15:10:14.446Z,26.80
2018-12-29T15:12:43.178Z,27.47
2018-12-29T15:15:12.167Z,28.53
2018-12-29T15:17:40.826Z,28.10
2018-12-29T15:20:09.955Z,26.80
2018-12-29T15:22:51.916Z,27.13
2018-12-29T15:25:54.412Z,28.63
2018-12-29T15:28:46.314Z,27.63
2018-12-29T15:31:44.103Z,29.20
2018-12-29T15:41:22.443Z,26.77
2018-12-29T15:44:08.982Z,26.40
2018-12-29T15:57:40.223Z,26.27
2018-12-29T16:00:16.240Z,25.93
2018-12-29T16:02:45.176Z,27.60
2018-12-29T16:05:18.931Z,27.00
2018-12-29T16:07:47.930Z,27.53
2018-12-29T16:10:16.849Z,27.97
